Destinations Klagenfurt Airport

Klagenfurt Airport (LOWK / KLU)

Flights to Klagenfurt Airport

Flight number From ETE Dispatch
SPY-2402 EGPH Edinburgh Airport 02:40

Flights from Klagenfurt Airport

Flight number To ETE Dispatch
SPY-2403 EGPH Edinburgh Airport 02:40
About

Klagenfurt Airport facts

Klagenfurt Airport is located in Klagenfurt at an elevation of 448.7 meters or 1472 feet.

Currently, Speedy Airlines serves 2 flights to and from Klagenfurt Airport.

Detailed airport info

Route map

Weather

Current weather

METAR

METAR

Metar data retrieved Sunday, 21 July 2024 at 20:25 UTC

LOWK 211950Z AUTO 35003KT 310V040 9999 FEW060 24/19 Q1011 NOSIG
Wind Temperature
3 kt 24c